Time;durP1;ratioP1;P1;durP2;ratioP2;P2;SDS_P1;SDS_P2;PMS_P1;PMS_P2;Temp;Humidity;BMP_temperature;BMP_pressure;BME280_temperature;BME280_humidity;BME280_pressure;Samples;Min_cycle;Max_cycle;Signal;HPM_P1;HPM_P2
2021/06/20 00:00:49;;;;;;;7.28;4.80;;;;;;;26.47;45.33;99132.38;5136728;27;20401;-63
2021/06/20 00:03:15;;;;;;;7.03;5.03;;;;;;;26.47;45.36;99124.38;5118916;27;20043;-63
2021/06/20 00:05:46;;;;;;;6.60;4.60;;;;;;;26.47;45.30;99129.72;5137103;27;20390;-63
2021/06/20 00:08:13;;;;;;;8.32;4.78;;;;;;;26.46;45.32;99122.66;5137104;27;20129;-62
2021/06/20 00:10:40;;;;;;;6.70;4.50;;;;;;;26.44;45.25;99125.41;5136970;27;20563;-62
2021/06/20 00:13:08;;;;;;;9.40;4.90;;;;;;;26.44;45.28;99127.25;5118738;27;20096;-62
2021/06/20 00:15:35;;;;;;;7.40;4.82;;;;;;;26.42;45.24;99116.66;5136491;27;20116;-62
2021/06/20 00:18:02;;;;;;;8.38;5.13;;;;;;;26.41;45.24;99117.66;5118447;27;20574;-63
2021/06/20 00:20:31;;;;;;;7.03;4.75;;;;;;;26.40;45.39;99118.59;5136528;27;20039;-63
2021/06/20 00:22:58;;;;;;;7.18;4.70;;;;;;;26.40;45.31;99123.94;5136484;27;20560;-63
2021/06/20 00:25:25;;;;;;;8.55;5.45;;;;;;;26.40;45.42;99131.13;5136775;27;20043;-63
2021/06/20 00:27:52;;;;;;;6.65;4.72;;;;;;;26.39;45.42;99140.09;5136338;27;20481;-63
2021/06/20 00:30:21;;;;;;;7.60;4.80;;;;;;;26.38;45.26;99131.22;5136622;27;20043;-62
2021/06/20 00:32:48;;;;;;;6.88;4.78;;;;;;;26.38;45.29;99130.38;5136508;27;20501;-63
2021/06/20 00:35:15;;;;;;;7.20;5.07;;;;;;;26.37;45.42;99134.88;5136224;27;20095;-62
2021/06/20 00:37:42;;;;;;;7.57;4.78;;;;;;;26.36;45.35;99138.50;5136463;27;20049;-62
2021/06/20 00:40:09;;;;;;;8.18;5.20;;;;;;;26.34;45.40;99135.09;5136472;27;20087;-62
2021/06/20 00:42:36;;;;;;;8.80;4.95;;;;;;;26.32;45.53;99134.34;5135236;27;20484;-62
2021/06/20 00:45:02;;;;;;;7.38;4.88;;;;;;;26.31;45.36;99132.66;5135877;27;20047;-62
2021/06/20 00:47:31;;;;;;;6.63;4.70;;;;;;;26.30;45.48;99128.25;5136273;27;20092;-62
2021/06/20 00:49:57;;;;;;;6.75;4.70;;;;;;;26.29;45.42;99127.41;5136196;27;20130;-62
2021/06/20 00:52:24;;;;;;;7.32;5.10;;;;;;;26.28;45.53;99131.03;5135797;27;20424;-62
2021/06/20 00:54:54;;;;;;;7.30;4.78;;;;;;;26.27;45.55;99121.34;5136146;27;20043;-62
2021/06/20 00:57:21;;;;;;;8.77;5.40;;;;;;;26.27;45.51;99128.50;5136002;27;20043;-62
2021/06/20 00:59:51;;;;;;;8.93;5.53;;;;;;;26.25;45.50;99125.94;5136027;27;20048;-62
2021/06/20 01:02:18;;;;;;;7.47;4.93;;;;;;;26.24;45.47;99118.03;5135866;27;20051;-62
2021/06/20 01:04:50;;;;;;;6.97;4.65;;;;;;;26.24;45.61;99115.38;5135928;27;20051;-62
2021/06/20 01:07:18;;;;;;;7.05;4.85;;;;;;;26.23;45.49;99105.63;5135532;27;20485;-62
2021/06/20 01:09:44;;;;;;;7.45;4.55;;;;;;;26.22;45.50;99112.78;5135518;27;20069;-62
2021/06/20 01:12:12;;;;;;;8.43;5.18;;;;;;;26.19;45.54;99106.81;5135663;27;20043;-62
2021/06/20 01:14:38;;;;;;;9.13;5.03;;;;;;;26.18;45.65;99110.47;5135204;27;20055;-61
2021/06/20 01:17:05;;;;;;;6.47;4.65;;;;;;;26.17;45.58;99112.28;5135438;27;20043;-61
2021/06/20 01:19:32;;;;;;;7.85;4.85;;;;;;;26.18;45.46;99113.16;5135612;27;20039;-62
2021/06/20 01:22:15;;;;;;;9.77;5.45;;;;;;;26.17;45.64;99100.75;5135194;27;20557;-62
2021/06/20 01:24:45;;;;;;;7.03;4.80;;;;;;;26.15;45.61;99097.34;5135276;27;20043;-61
2021/06/20 01:27:11;;;;;;;8.07;4.82;;;;;;;26.13;45.53;99098.31;5135395;27;20044;-62
2021/06/20 01:29:45;;;;;;;7.60;4.95;;;;;;;26.12;45.56;99095.75;5135140;27;20461;-62
2021/06/20 01:32:12;;;;;;;7.35;4.80;;;;;;;26.12;45.66;99109.94;5118421;27;20071;-62
2021/06/20 01:34:41;;;;;;;7.78;5.00;;;;;;;26.12;45.56;99107.28;5135354;27;20120;-62
2021/06/20 01:37:10;;;;;;;7.00;4.90;;;;;;;26.12;45.56;99109.09;5135432;27;20458;-62
2021/06/20 01:39:41;;;;;;;8.85;5.32;;;;;;;26.09;45.62;99110.19;5135391;27;20044;-63
2021/06/20 01:42:09;;;;;;;6.97;4.40;;;;;;;26.10;45.63;99105.69;5134868;27;20517;-62
2021/06/20 01:44:45;;;;;;;8.25;5.28;;;;;;;26.08;45.83;99118.28;5135107;27;20065;-62
2021/06/20 01:47:12;;;;;;;8.90;5.30;;;;;;;26.06;45.76;99121.06;5135105;27;20046;-62
2021/06/20 01:49:38;;;;;;;8.63;5.20;;;;;;;26.01;45.65;99117.88;5134744;27;20043;-62
2021/06/20 01:52:05;;;;;;;8.38;5.30;;;;;;;25.99;45.86;99122.47;5134853;27;20043;-62
2021/06/20 01:54:36;;;;;;;7.80;5.35;;;;;;;25.97;45.65;99131.56;5133942;27;20043;-62
2021/06/20 01:57:06;;;;;;;7.50;5.18;;;;;;;25.96;45.99;99130.72;5134513;27;20130;-62
2021/06/20 01:59:36;;;;;;;9.27;5.22;;;;;;;25.93;45.95;99130.91;5134845;27;20174;-62
2021/06/20 02:02:02;;;;;;;6.85;4.63;;;;;;;25.93;45.86;99126.41;5134675;27;20047;-62
2021/06/20 02:04:29;;;;;;;7.00;5.10;;;;;;;25.93;45.89;99118.41;5134656;27;20047;-62
2021/06/20 02:06:56;;;;;;;7.82;4.95;;;;;;;25.92;45.99;99107.88;5134411;27;20482;-62
2021/06/20 02:09:22;;;;;;;7.35;4.88;;;;;;;25.93;45.92;99115.75;5134350;27;20046;-62
2021/06/20 02:11:49;;;;;;;8.68;5.03;;;;;;;25.93;45.94;99113.06;5134116;27;20450;-63
2021/06/20 02:14:18;;;;;;;7.53;4.80;;;;;;;25.94;45.89;99121.97;5114665;27;20060;-63
2021/06/20 02:16:45;;;;;;;8.80;5.32;;;;;;;25.89;46.28;99119.56;5093645;28;20081;-62
2021/06/20 02:19:11;;;;;;;7.75;5.30;;;;;;;25.92;46.05;99121.22;5093288;28;20044;-62
2021/06/20 02:21:38;;;;;;;6.50;4.57;;;;;;;25.89;45.97;99108.91;5093632;28;20050;-62
2021/06/20 02:24:05;;;;;;;6.88;4.53;;;;;;;25.89;45.94;99118.72;5093591;28;20476;-62
2021/06/20 02:26:32;;;;;;;7.07;5.03;;;;;;;25.90;45.99;99115.06;5093425;28;20100;-62
2021/06/20 02:28:59;;;;;;;7.50;5.20;;;;;;;25.90;45.93;99120.41;5093017;28;20077;-63
2021/06/20 02:31:27;;;;;;;6.53;4.60;;;;;;;25.89;46.00;99132.06;5093433;28;20048;-62
2021/06/20 02:33:53;;;;;;;7.15;4.80;;;;;;;25.89;45.91;99127.56;5093303;28;20114;-62
2021/06/20 02:36:20;;;;;;;6.93;4.60;;;;;;;25.87;45.98;99126.84;5093357;28;20395;-62
2021/06/20 02:38:47;;;;;;;9.63;5.40;;;;;;;25.87;46.02;99132.16;5093203;28;20048;-62
2021/06/20 02:41:14;;;;;;;7.15;4.70;;;;;;;25.85;46.12;99130.59;5093156;28;20044;-62
2021/06/20 02:43:40;;;;;;;9.45;5.30;;;;;;;25.84;46.02;99135.06;5093025;28;20040;-63
2021/06/20 02:46:07;;;;;;;8.68;5.30;;;;;;;25.83;46.00;99136.03;5092773;28;20048;-63
2021/06/20 02:48:35;;;;;;;9.00;4.90;;;;;;;25.83;46.05;99140.53;5093118;28;20094;-63
2021/06/20 02:51:02;;;;;;;6.93;4.70;;;;;;;25.82;45.98;99136.13;5092984;28;20117;-63
2021/06/20 02:53:29;;;;;;;7.70;5.07;;;;;;;25.83;46.16;99132.50;5092692;28;20193;-63
2021/06/20 02:55:55;;;;;;;7.43;4.70;;;;;;;25.83;46.06;99130.69;5093011;28;20098;-63
2021/06/20 02:58:22;;;;;;;7.68;4.75;;;;;;;25.82;46.04;99128.97;5092617;28;20556;-63
2021/06/20 03:00:49;;;;;;;7.07;4.80;;;;;;;25.84;46.00;99131.53;5092979;28;20104;-63
2021/06/20 03:03:15;;;;;;;7.15;4.80;;;;;;;25.81;46.00;99121.94;5092879;28;20444;-62
2021/06/20 03:05:46;;;;;;;7.60;5.28;;;;;;;25.79;46.13;99129.19;5092642;28;20048;-63
2021/06/20 03:08:13;;;;;;;6.70;4.82;;;;;;;25.78;46.09;99131.97;5092581;28;20048;-63
2021/06/20 03:10:40;;;;;;;7.65;4.80;;;;;;;25.75;46.13;99138.38;5092360;28;20059;-63
2021/06/20 03:13:08;;;;;;;7.00;4.70;;;;;;;25.74;46.09;99142.88;5092793;28;20048;-63
2021/06/20 03:15:38;;;;;;;9.13;5.22;;;;;;;25.73;46.18;99141.16;5092322;28;20052;-63
2021/06/20 03:18:05;;;;;;;8.35;5.50;;;;;;;25.72;46.24;99134.09;5092704;28;20048;-62
2021/06/20 03:20:32;;;;;;;7.55;4.63;;;;;;;25.72;46.11;99139.44;5092331;28;20060;-63
2021/06/20 03:23:01;;;;;;;7.95;5.32;;;;;;;25.71;46.39;99132.41;5092153;28;20180;-63
2021/06/20 03:25:27;;;;;;;9.50;5.55;;;;;;;25.70;46.32;99124.50;5092608;28;20079;-63
2021/06/20 03:27:54;;;;;;;7.40;5.32;;;;;;;25.68;46.46;99116.59;5092046;28;20498;-63
2021/06/20 03:30:24;;;;;;;7.28;4.65;;;;;;;25.69;46.17;99121.00;5092582;28;20044;-63
2021/06/20 03:32:51;;;;;;;8.27;5.13;;;;;;;25.70;46.06;99124.50;5092462;28;20456;-63
2021/06/20 03:35:18;;;;;;;7.22;4.50;;;;;;;25.68;46.21;99126.44;5092183;28;20040;-63
2021/06/20 03:37:44;;;;;;;7.25;4.68;;;;;;;25.67;46.18;99114.91;5092444;28;20048;-63
2021/06/20 03:40:13;;;;;;;6.95;4.78;;;;;;;25.67;46.30;99125.59;5092481;28;20086;-63
2021/06/20 03:42:40;;;;;;;6.60;4.57;;;;;;;25.68;46.32;99121.94;5092104;28;20101;-63
2021/06/20 03:45:08;;;;;;;7.72;5.05;;;;;;;25.68;46.16;99121.94;5092283;28;20185;-63
2021/06/20 03:47:35;;;;;;;7.53;4.90;;;;;;;25.68;46.18;99129.09;5092357;28;20094;-62
2021/06/20 03:50:08;;;;;;;7.18;4.85;;;;;;;25.68;46.22;99137.09;5074153;28;20093;-63
2021/06/20 03:52:35;;;;;;;7.03;4.72;;;;;;;25.67;46.02;99138.94;5091990;28;20047;-63
2021/06/20 03:55:02;;;;;;;7.97;4.75;;;;;;;25.67;46.18;99144.25;5092022;28;20044;-63
2021/06/20 03:57:30;;;;;;;7.88;4.60;;;;;;;25.67;46.14;99138.94;5092224;28;20044;-62
2021/06/20 03:59:56;;;;;;;5.95;4.32;;;;;;;25.68;46.11;99142.44;5091986;28;20113;-63
2021/06/20 04:02:23;;;;;;;8.40;4.78;;;;;;;25.68;46.23;99142.44;5091836;28;20115;-63
2021/06/20 04:04:50;;;;;;;7.38;4.90;;;;;;;25.66;46.24;99137.19;5091899;28;20101;-63
2021/06/20 04:07:17;;;;;;;8.82;5.00;;;;;;;25.65;46.26;99138.19;5092162;28;20044;-63
2021/06/20 04:09:46;;;;;;;8.00;5.20;;;;;;;25.65;46.36;99132.84;5092110;28;20052;-63
2021/06/20 04:12:13;;;;;;;8.50;4.90;;;;;;;25.64;46.30;99131.13;5092112;28;20097;-63
2021/06/20 04:14:42;;;;;;;8.15;4.47;;;;;;;25.65;46.34;99124.84;5092006;28;20101;-64
2021/06/20 04:17:12;;;;;;;8.15;5.43;;;;;;;25.64;46.21;99125.78;5091795;28;20048;-63
2021/06/20 04:19:39;;;;;;;6.60;4.53;;;;;;;25.65;46.26;99123.97;5077282;28;20048;-63
2021/06/20 04:22:06;;;;;;;6.82;4.90;;;;;;;25.65;46.11;99122.19;5095485;28;20040;-63
2021/06/20 04:24:33;;;;;;;7.90;5.07;;;;;;;25.67;46.14;99130.06;5095794;28;20044;-63
2021/06/20 04:26:59;;;;;;;6.55;4.68;;;;;;;25.68;46.13;99126.44;5095489;28;20048;-63
2021/06/20 04:29:26;;;;;;;6.88;4.70;;;;;;;25.67;46.27;99117.59;5095786;28;20093;-63
2021/06/20 04:31:54;;;;;;;7.38;4.78;;;;;;;25.68;46.26;99116.59;5095771;28;20117;-63
2021/06/20 04:34:21;;;;;;;7.75;4.57;;;;;;;25.69;46.20;99117.47;5095394;28;20481;-62
2021/06/20 04:36:47;;;;;;;7.97;4.75;;;;;;;25.70;46.06;99119.16;5095589;28;20040;-63
2021/06/20 04:39:14;;;;;;;7.15;4.70;;;;;;;25.70;46.15;99120.00;5095623;28;20164;-63
2021/06/20 04:41:41;;;;;;;7.20;4.40;;;;;;;25.71;46.14;99129.75;5095503;28;20044;-63
2021/06/20 04:44:42;;;;;;;6.88;4.65;;;;;;;25.72;46.00;99128.75;5095315;28;20052;-63
2021/06/20 04:46:56;;;;;;;7.30;4.70;;;;;;;25.73;46.04;99122.47;5094885;28;20052;-63
2021/06/20 04:49:23;;;;;;;7.32;4.60;;;;;;;25.73;46.05;99117.16;5095335;28;20097;-63
2021/06/20 04:51:50;;;;;;;8.15;4.72;;;;;;;25.75;46.03;99117.03;5094817;28;20452;-63
2021/06/20 04:54:16;;;;;;;8.65;4.68;;;;;;;25.78;45.97;99121.28;5095175;28;20048;-63
2021/06/20 04:56:43;;;;;;;6.93;4.70;;;;;;;25.78;45.89;99122.13;5095233;28;20048;-63
2021/06/20 04:59:10;;;;;;;7.32;4.80;;;;;;;25.79;45.87;99123.03;5095102;28;20127;-63
2021/06/20 05:01:37;;;;;;;6.97;4.82;;;;;;;25.81;45.77;99124.59;5095122;28;20444;-63
2021/06/20 05:04:05;;;;;;;7.38;4.60;;;;;;;25.81;45.66;99115.75;5094959;28;20105;-63
2021/06/20 05:06:32;;;;;;;6.53;4.43;;;;;;;25.85;45.67;99122.56;5094944;28;20044;-63
2021/06/20 05:08:59;;;;;;;6.70;4.32;;;;;;;25.88;45.61;99122.34;5094692;28;20093;-63
2021/06/20 05:11:25;;;;;;;6.82;4.25;;;;;;;25.91;45.59;99127.50;5094777;28;20097;-63
2021/06/20 15:40:36;;;;;;;4.15;2.58;;;;;;;30.48;35.31;98735.03;5130761;27;20346;-61
